createdAt,value
2022-09-10T00:00:14.954Z,1003.68
2022-09-10T00:01:14.957Z,1003.60
2022-09-10T00:02:14.966Z,1003.61
2022-09-10T00:03:14.998Z,1003.60
2022-09-10T00:04:14.937Z,1003.64
2022-09-10T00:05:14.923Z,1003.64
2022-09-10T00:06:14.895Z,1003.65
2022-09-10T00:07:14.892Z,1003.61
2022-09-10T00:08:14.888Z,1003.68
2022-09-10T00:09:14.891Z,1003.64
2022-09-10T00:10:14.894Z,1003.66
2022-09-10T00:11:14.875Z,1003.66
2022-09-10T00:12:14.892Z,1003.70
2022-09-10T00:13:14.872Z,1003.69
2022-09-10T00:14:14.878Z,1003.65
2022-09-10T00:15:14.869Z,1003.65
2022-09-10T00:16:14.917Z,1003.66
2022-09-10T00:17:14.854Z,1003.68
2022-09-10T00:18:14.838Z,1003.66
2022-09-10T00:19:14.890Z,1003.65
2022-09-10T00:20:14.839Z,1003.64
2022-09-10T00:21:14.870Z,1003.64
2022-09-10T00:22:14.836Z,1003.59
2022-09-10T00:23:14.835Z,1003.60
2022-09-10T00:24:14.837Z,1003.61
2022-09-10T00:25:14.811Z,1003.61
2022-09-10T00:26:14.804Z,1003.60
2022-09-10T00:27:14.807Z,1003.62
2022-09-10T00:28:14.811Z,1003.63
2022-09-10T00:29:14.805Z,1003.60
2022-09-10T00:30:14.807Z,1003.63
2022-09-10T00:31:14.808Z,1003.62
2022-09-10T00:32:14.791Z,1003.68
2022-09-10T00:33:14.763Z,1003.65
2022-09-10T00:34:14.767Z,1003.69
2022-09-10T00:35:14.758Z,1003.70
2022-09-10T00:36:14.758Z,1003.67
2022-09-10T00:37:14.770Z,1003.67
2022-09-10T00:38:14.781Z,1003.66
2022-09-10T00:39:14.753Z,1003.72
2022-09-10T00:40:14.736Z,1003.68
2022-09-10T00:41:14.733Z,1003.74
2022-09-10T00:42:14.717Z,1003.76
2022-09-10T00:43:14.748Z,1003.77
2022-09-10T00:44:14.743Z,1003.83
2022-09-10T00:45:14.705Z,1003.82
2022-09-10T00:46:14.728Z,1003.80
2022-09-10T00:47:14.725Z,1003.82
2022-09-10T00:48:14.693Z,1003.79
2022-09-10T00:49:14.691Z,1003.82
2022-09-10T00:50:14.690Z,1003.81
2022-09-10T00:51:14.679Z,1003.84
2022-09-10T00:52:14.677Z,1003.85
2022-09-10T00:53:14.689Z,1003.82
2022-09-10T00:54:14.663Z,1003.81
2022-09-10T00:55:14.718Z,1003.80
2022-09-10T00:56:14.686Z,1003.83
2022-09-10T00:57:14.690Z,1003.80
2022-09-10T00:58:14.671Z,1003.79
2022-09-10T00:59:14.664Z,1003.77
2022-09-10T01:00:14.633Z,1003.78
2022-09-10T01:01:14.680Z,1003.77
2022-09-10T01:02:14.691Z,1003.75
2022-09-10T01:03:14.643Z,1003.76
2022-09-10T01:04:14.612Z,1003.78
2022-09-10T01:05:14.617Z,1003.79
2022-09-10T01:06:14.605Z,1003.82
2022-09-10T01:07:14.601Z,1003.85
2022-09-10T01:08:14.594Z,1003.82
2022-09-10T01:09:14.590Z,1003.77
2022-09-10T01:10:14.611Z,1003.78
2022-09-10T01:11:14.578Z,1003.78
2022-09-10T01:12:14.606Z,1003.78
2022-09-10T01:13:14.568Z,1003.76
2022-09-10T01:14:14.564Z,1003.76
2022-09-10T01:15:14.552Z,1003.77
2022-09-10T01:16:14.602Z,1003.77
2022-09-10T01:17:14.578Z,1003.74
2022-09-10T01:18:14.543Z,1003.76
2022-09-10T01:19:14.535Z,1003.76
2022-09-10T01:20:14.531Z,1003.78
2022-09-10T01:21:14.554Z,1003.74
2022-09-10T01:22:14.520Z,1003.71
2022-09-10T01:23:17.608Z,1003.70
2022-09-10T01:24:14.519Z,1003.69
2022-09-10T01:25:14.503Z,1003.70
2022-09-10T01:26:14.509Z,1003.67
2022-09-10T01:27:14.525Z,1003.71
2022-09-10T01:28:14.525Z,1003.66
2022-09-10T01:29:14.480Z,1003.64
2022-09-10T01:30:14.486Z,1003.62
2022-09-10T01:31:14.546Z,1003.65
2022-09-10T01:32:14.471Z,1003.63
2022-09-10T01:33:14.482Z,1003.61
2022-09-10T01:34:14.462Z,1003.63
2022-09-10T01:35:14.474Z,1003.62
2022-09-10T01:36:14.455Z,1003.65
2022-09-10T01:37:14.486Z,1003.67
2022-09-10T01:38:14.442Z,1003.66
2022-09-10T01:39:14.471Z,1003.64
2022-09-10T01:40:14.427Z,1003.66
2022-09-10T01:41:14.426Z,1003.65
2022-09-10T01:42:14.423Z,1003.63
2022-09-10T01:43:14.420Z,1003.62
2022-09-10T01:44:14.431Z,1003.69
2022-09-10T01:45:14.422Z,1003.64
2022-09-10T01:46:14.420Z,1003.63
2022-09-10T01:47:14.389Z,1003.60
2022-09-10T01:48:14.392Z,1003.65
2022-09-10T01:49:14.406Z,1003.63
2022-09-10T01:50:14.381Z,1003.57
2022-09-10T01:51:14.379Z,1003.60
2022-09-10T01:52:14.371Z,1003.57
2022-09-10T01:53:14.364Z,1003.61
2022-09-10T01:54:14.375Z,1003.56
2022-09-10T01:55:14.370Z,1003.51
2022-09-10T01:56:14.346Z,1003.59
2022-09-10T01:57:14.341Z,1003.53
2022-09-10T01:58:14.339Z,1003.50
2022-09-10T01:59:14.340Z,1003.49
2022-09-10T02:00:14.326Z,1003.49
2022-09-10T02:01:14.410Z,1003.50
2022-09-10T02:02:14.351Z,1003.47
2022-09-10T02:03:14.333Z,1003.49
2022-09-10T02:04:14.341Z,1003.47
2022-09-10T02:05:14.314Z,1003.47
2022-09-10T02:06:14.327Z,1003.50
2022-09-10T02:07:14.298Z,1003.49
2022-09-10T02:08:14.294Z,1003.49
2022-09-10T02:09:14.301Z,1003.49
2022-09-10T02:10:14.276Z,1003.46
2022-09-10T02:11:14.311Z,1003.43
2022-09-10T02:12:14.289Z,1003.42
2022-09-10T02:13:14.283Z,1003.43
2022-09-10T02:14:14.275Z,1003.44
2022-09-10T02:15:14.247Z,1003.41
2022-09-10T02:16:14.286Z,1003.41
2022-09-10T02:17:14.250Z,1003.39
2022-09-10T02:18:14.236Z,1003.38
2022-09-10T02:19:14.247Z,1003.35
2022-09-10T02:20:14.238Z,1003.39
2022-09-10T02:21:14.243Z,1003.36
2022-09-10T02:22:14.225Z,1003.35
2022-09-10T02:23:14.220Z,1003.42
2022-09-10T02:24:14.232Z,1003.36
2022-09-10T02:25:14.222Z,1003.37
2022-09-10T02:26:14.201Z,1003.41
2022-09-10T02:27:14.230Z,1003.40
2022-09-10T02:28:14.210Z,1003.37
2022-09-10T02:29:14.213Z,1003.40
2022-09-10T02:30:14.195Z,1003.38
2022-09-10T02:31:14.231Z,1003.44
2022-09-10T02:32:14.184Z,1003.45
2022-09-10T02:33:14.155Z,1003.44
2022-09-10T02:34:14.190Z,1003.45
2022-09-10T02:35:14.169Z,1003.44
2022-09-10T02:36:14.143Z,1003.44
2022-09-10T02:37:14.137Z,1003.46
2022-09-10T02:38:14.136Z,1003.46
2022-09-10T02:39:14.125Z,1003.44
2022-09-10T02:40:14.170Z,1003.40
2022-09-10T02:41:14.127Z,1003.39
2022-09-10T02:42:14.129Z,1003.45
2022-09-10T02:43:14.113Z,1003.47
2022-09-10T02:44:14.124Z,1003.42
2022-09-10T02:45:14.114Z,1003.43
2022-09-10T02:46:14.098Z,1003.43
2022-09-10T02:47:14.088Z,1003.47
2022-09-10T02:48:14.098Z,1003.49
2022-09-10T02:49:14.080Z,1003.51
2022-09-10T02:50:14.102Z,1003.52
2022-09-10T02:51:14.098Z,1003.51
2022-09-10T02:52:14.065Z,1003.50
2022-09-10T02:53:14.080Z,1003.50
2022-09-10T02:54:14.074Z,1003.51
2022-09-10T02:55:14.043Z,1003.53
2022-09-10T02:56:14.059Z,1003.52
2022-09-10T02:57:14.044Z,1003.51
2022-09-10T02:58:14.047Z,1003.52
2022-09-10T02:59:14.027Z,1003.55
2022-09-10T03:00:14.020Z,1003.54
2022-09-10T03:01:14.064Z,1003.54
2022-09-10T03:02:14.079Z,1003.52
2022-09-10T03:03:14.043Z,1003.51
2022-09-10T03:04:14.032Z,1003.51
2022-09-10T03:05:14.078Z,1003.52
2022-09-10T03:06:13.992Z,1003.51
2022-09-10T03:07:14.003Z,1003.55
2022-09-10T03:08:13.992Z,1003.52
2022-09-10T03:09:13.976Z,1003.57
2022-09-10T03:10:13.970Z,1003.56
2022-09-10T03:11:13.965Z,1003.55
2022-09-10T03:12:13.966Z,1003.55
2022-09-10T03:13:14.010Z,1003.58
2022-09-10T03:14:13.951Z,1003.55
2022-09-10T03:15:13.970Z,1003.53
2022-09-10T03:16:14.012Z,1003.56
2022-09-10T03:17:13.934Z,1003.55
2022-09-10T03:18:13.946Z,1003.57
2022-09-10T03:19:13.927Z,1003.57
2022-09-10T03:20:13.928Z,1003.53
2022-09-10T03:21:13.933Z,1003.53
2022-09-10T03:22:13.922Z,1003.51
2022-09-10T03:23:13.911Z,1003.49
2022-09-10T03:24:15.460Z,1003.52
2022-09-10T03:25:13.895Z,1003.49
2022-09-10T03:26:13.888Z,1003.49
2022-09-10T03:27:13.915Z,1003.49
2022-09-10T03:28:13.888Z,1003.50
2022-09-10T03:29:13.909Z,1003.51
2022-09-10T03:30:13.904Z,1003.45
2022-09-10T03:31:13.939Z,1003.46
2022-09-10T03:32:13.894Z,1003.47
2022-09-10T03:33:13.866Z,1003.46
2022-09-10T03:34:13.858Z,1003.41
2022-09-10T03:35:13.841Z,1003.42
2022-09-10T03:36:13.850Z,1003.46
2022-09-10T03:37:13.832Z,1003.45
2022-09-10T03:38:13.854Z,1003.43
2022-09-10T03:39:13.837Z,1003.45
2022-09-10T03:40:13.882Z,1003.43
2022-09-10T03:41:13.834Z,1003.39
2022-09-10T03:42:13.836Z,1003.38
2022-09-10T03:43:13.842Z,1003.40
2022-09-10T03:44:13.819Z,1003.37
2022-09-10T03:45:13.812Z,1003.36
2022-09-10T03:46:13.816Z,1003.40
2022-09-10T03:47:13.810Z,1003.38
2022-09-10T03:48:13.822Z,1003.35
2022-09-10T03:49:13.800Z,1003.30
2022-09-10T03:50:13.795Z,1003.34
2022-09-10T03:51:13.779Z,1003.33
2022-09-10T03:52:13.799Z,1003.30
2022-09-10T03:53:13.787Z,1003.39
2022-09-10T03:54:13.761Z,1003.33
2022-09-10T03:55:13.777Z,1003.36
2022-09-10T03:56:13.743Z,1003.40
2022-09-10T03:57:13.738Z,1003.42
2022-09-10T03:58:13.727Z,1003.42
2022-09-10T03:59:13.743Z,1003.42
2022-09-10T04:00:13.746Z,1003.40
2022-09-10T04:01:13.790Z,1003.44
2022-09-10T04:02:13.735Z,1003.38
2022-09-10T04:03:13.710Z,1003.42
2022-09-10T04:04:13.728Z,1003.42
2022-09-10T04:05:13.741Z,1003.42
2022-09-10T04:06:13.710Z,1003.46
2022-09-10T04:07:13.680Z,1003.41
2022-09-10T04:08:13.683Z,1003.42
2022-09-10T04:09:13.693Z,1003.40
2022-09-10T04:10:13.678Z,1003.35
2022-09-10T04:11:13.727Z,1003.43
2022-09-10T04:12:13.660Z,1003.44
2022-09-10T04:13:13.701Z,1003.48
2022-09-10T04:14:13.659Z,1003.47
2022-09-10T04:15:13.697Z,1003.47
2022-09-10T04:16:13.671Z,1003.46
2022-09-10T04:17:13.669Z,1003.48
2022-09-10T04:18:13.650Z,1003.49
2022-09-10T04:19:13.632Z,1003.47
2022-09-10T04:20:13.671Z,1003.48
2022-09-10T04:21:13.635Z,1003.50
2022-09-10T04:22:13.684Z,1003.45
2022-09-10T04:23:13.599Z,1003.49
2022-09-10T04:24:13.621Z,1003.49
2022-09-10T04:25:13.591Z,1003.46
2022-09-10T04:26:13.583Z,1003.46
2022-09-10T04:27:13.604Z,1003.45
2022-09-10T04:28:13.618Z,1003.48
2022-09-10T04:29:13.576Z,1003.51
2022-09-10T04:30:13.610Z,1003.49
2022-09-10T04:31:13.577Z,1003.46
2022-09-10T04:32:13.558Z,1003.51
2022-09-10T04:33:13.552Z,1003.47
2022-09-10T04:34:13.553Z,1003.47
2022-09-10T04:35:13.537Z,1003.46
2022-09-10T04:36:13.553Z,1003.48
2022-09-10T04:37:17.428Z,1003.48
2022-09-10T04:38:13.533Z,1003.49
2022-09-10T04:39:13.526Z,1003.49
2022-09-10T04:40:13.570Z,1003.49
2022-09-10T04:41:13.516Z,1003.49
2022-09-10T04:42:13.510Z,1003.49
2022-09-10T04:43:13.519Z,1003.46
2022-09-10T04:44:13.508Z,1003.49
2022-09-10T04:45:13.492Z,1003.47
2022-09-10T04:46:13.519Z,1003.46
2022-09-10T04:47:13.489Z,1003.49
2022-09-10T04:48:13.489Z,1003.47
2022-09-10T04:49:13.477Z,1003.52
2022-09-10T04:50:13.481Z,1003.51
2022-09-10T04:51:17.731Z,1003.55
2022-09-10T04:52:13.462Z,1003.55
2022-09-10T04:53:13.448Z,1003.60
2022-09-10T04:54:13.474Z,1003.57
2022-09-10T04:55:13.445Z,1003.56
2022-09-10T04:56:13.436Z,1003.61
2022-09-10T04:57:13.446Z,1003.56
2022-09-10T04:58:13.451Z,1003.58
2022-09-10T04:59:13.438Z,1003.59
2022-09-10T05:00:13.449Z,1003.61
2022-09-10T05:01:13.593Z,1003.58
2022-09-10T05:02:13.459Z,1003.60
2022-09-10T05:03:13.409Z,1003.59
2022-09-10T05:04:13.406Z,1003.63
2022-09-10T05:05:13.390Z,1003.65
2022-09-10T05:06:13.385Z,1003.58
2022-09-10T05:07:13.398Z,1003.63
2022-09-10T05:08:13.402Z,1003.62
2022-09-10T05:09:13.375Z,1003.61
2022-09-10T05:10:13.366Z,1003.61
2022-09-10T05:11:13.408Z,1003.61
2022-09-10T05:12:13.386Z,1003.65
2022-09-10T05:13:13.355Z,1003.61
2022-09-10T05:14:13.348Z,1003.63
2022-09-10T05:15:13.370Z,1003.67
2022-09-10T05:16:13.375Z,1003.64
2022-09-10T05:17:13.335Z,1003.67
2022-09-10T05:18:13.328Z,1003.66
2022-09-10T05:19:13.322Z,1003.64
2022-09-10T05:20:13.337Z,1003.70
2022-09-10T05:21:13.308Z,1003.62
2022-09-10T05:22:13.330Z,1003.61
2022-09-10T05:23:13.309Z,1003.64
2022-09-10T05:24:13.304Z,1003.60
2022-09-10T05:25:13.297Z,1003.58
2022-09-10T05:26:13.313Z,1003.58
2022-09-10T05:27:13.312Z,1003.59
2022-09-10T05:28:13.311Z,1003.59
2022-09-10T05:29:13.289Z,1003.62
2022-09-10T05:30:13.281Z,1003.61
2022-09-10T05:31:13.320Z,1003.62
2022-09-10T05:32:13.266Z,1003.64
2022-09-10T05:33:13.285Z,1003.65
2022-09-10T05:34:13.278Z,1003.66
2022-09-10T05:35:13.243Z,1003.63
2022-09-10T05:36:13.255Z,1003.68
2022-09-10T05:37:13.254Z,1003.67
2022-09-10T05:38:13.231Z,1003.69
2022-09-10T05:39:13.244Z,1003.72
2022-09-10T05:40:13.231Z,1003.75
2022-09-10T05:41:13.215Z,1003.75
2022-09-10T05:42:13.218Z,1003.77
2022-09-10T05:43:13.217Z,1003.79
2022-09-10T05:44:13.202Z,1003.76
2022-09-10T05:45:13.212Z,1003.79
2022-09-10T05:46:13.281Z,1003.78
2022-09-10T05:47:13.209Z,1003.77
2022-09-10T05:48:13.187Z,1003.76
2022-09-10T05:49:13.178Z,1003.76
2022-09-10T05:50:13.176Z,1003.84
2022-09-10T05:51:13.164Z,1003.80
2022-09-10T05:52:13.167Z,1003.82
2022-09-10T05:53:13.155Z,1003.87
2022-09-10T05:54:13.160Z,1003.84
2022-09-10T05:55:13.188Z,1003.82
2022-09-10T05:56:13.138Z,1003.88
2022-09-10T05:57:13.138Z,1003.89
2022-09-10T05:58:13.127Z,1003.90
2022-09-10T05:59:13.141Z,1003.91
2022-09-10T06:00:13.119Z,1003.95
2022-09-10T06:01:13.125Z,1003.91
2022-09-10T06:02:13.186Z,1003.91
2022-09-10T06:03:13.154Z,1003.90
2022-09-10T06:04:13.133Z,1003.88
2022-09-10T06:05:13.124Z,1003.91
2022-09-10T06:06:13.123Z,1003.90
2022-09-10T06:07:13.092Z,1003.92
2022-09-10T06:08:13.086Z,1003.93
2022-09-10T06:09:13.149Z,1003.93
2022-09-10T06:10:13.144Z,1003.91
2022-09-10T06:11:13.092Z,1003.93
2022-09-10T06:12:13.078Z,1003.91
2022-09-10T06:13:13.084Z,1003.93
2022-09-10T06:14:13.089Z,1003.92
2022-09-10T06:15:13.049Z,1003.93
2022-09-10T06:16:13.093Z,1003.94
2022-09-10T06:17:13.058Z,1003.96
2022-09-10T06:18:13.061Z,1003.94
2022-09-10T06:19:13.064Z,1003.95
2022-09-10T06:20:13.021Z,1003.93
2022-09-10T06:21:13.028Z,1003.96
2022-09-10T06:22:13.042Z,1003.96
2022-09-10T06:23:13.010Z,1003.95
2022-09-10T06:24:13.002Z,1004.00
2022-09-10T06:25:13.024Z,1003.99
2022-09-10T06:26:13.002Z,1003.99
2022-09-10T06:27:12.991Z,1003.99
2022-09-10T06:28:12.984Z,1004.03
2022-09-10T06:29:12.989Z,1004.02
2022-09-10T06:30:13.079Z,1004.01
2022-09-10T06:31:13.023Z,1004.04
2022-09-10T06:32:13.010Z,1004.03
2022-09-10T06:33:12.964Z,1004.03
2022-09-10T06:34:12.976Z,1004.01
2022-09-10T06:35:13.004Z,1004.01
2022-09-10T06:36:12.967Z,1004.01
2022-09-10T06:37:12.940Z,1004.02
2022-09-10T06:38:12.976Z,1004.02
2022-09-10T06:39:12.962Z,1004.04
2022-09-10T06:40:13.032Z,1003.98
2022-09-10T06:41:12.983Z,1003.98
2022-09-10T06:42:12.964Z,1004.03
2022-09-10T06:43:12.921Z,1004.00
2022-09-10T06:44:12.913Z,1003.99
2022-09-10T06:45:12.935Z,1004.01
2022-09-10T06:46:34.671Z,1004.01
2022-09-10T06:48:01.054Z,1004.03
2022-09-10T06:48:38.108Z,1004.04
2022-09-10T06:49:12.915Z,1004.09
2022-09-10T06:50:12.895Z,1004.06
2022-09-10T06:51:12.886Z,1004.08
2022-09-10T06:52:12.888Z,1004.12
2022-09-10T06:53:12.874Z,1004.15
2022-09-10T06:54:12.886Z,1004.14
2022-09-10T06:55:12.869Z,1004.14
2022-09-10T06:56:12.877Z,1004.14
2022-09-10T06:57:12.869Z,1004.14
2022-09-10T06:58:12.860Z,1004.18
2022-09-10T06:59:12.853Z,1004.17
2022-09-10T07:00:12.892Z,1004.20
2022-09-10T07:01:12.837Z,1004.22
2022-09-10T07:02:12.898Z,1004.20
2022-09-10T07:03:12.864Z,1004.20
2022-09-10T07:04:12.820Z,1004.21
2022-09-10T07:05:12.833Z,1004.24
2022-09-10T07:06:12.848Z,1004.24
2022-09-10T07:07:12.813Z,1004.22
2022-09-10T07:08:12.832Z,1004.24
2022-09-10T07:09:12.823Z,1004.25
2022-09-10T07:10:12.803Z,1004.30
2022-09-10T07:11:12.825Z,1004.28
2022-09-10T07:12:12.786Z,1004.21
2022-09-10T07:13:12.818Z,1004.25
2022-09-10T07:14:12.783Z,1004.27
2022-09-10T07:15:12.788Z,1004.32
2022-09-10T07:16:12.812Z,1004.29
2022-09-10T07:17:12.789Z,1004.28
2022-09-10T07:18:12.794Z,1004.30
2022-09-10T07:19:12.776Z,1004.35
2022-09-10T07:20:12.752Z,1004.34
2022-09-10T07:21:12.767Z,1004.34
2022-09-10T07:22:12.784Z,1004.33
2022-09-10T07:23:12.883Z,1004.35
2022-09-10T07:24:12.804Z,1004.35
2022-09-10T07:25:12.746Z,1004.31
2022-09-10T07:26:12.736Z,1004.38
2022-09-10T07:27:12.769Z,1004.32
2022-09-10T07:28:12.737Z,1004.32
2022-09-10T07:29:12.759Z,1004.35
2022-09-10T07:30:12.721Z,1004.34
2022-09-10T07:31:12.789Z,1004.37
2022-09-10T07:32:13.646Z,1004.40
2022-09-10T07:33:12.732Z,1004.41
2022-09-10T07:34:12.731Z,1004.40
2022-09-10T07:35:12.704Z,1004.42
2022-09-10T07:36:12.691Z,1004.39
2022-09-10T07:37:12.698Z,1004.39
2022-09-10T07:38:12.684Z,1004.46
2022-09-10T07:39:12.686Z,1004.46
2022-09-10T07:40:12.752Z,1004.42
2022-09-10T07:41:12.688Z,1004.47
2022-09-10T07:42:12.671Z,1004.44
2022-09-10T07:43:12.668Z,1004.44
2022-09-10T07:44:12.692Z,1004.43
2022-09-10T07:45:12.665Z,1004.45
2022-09-10T07:46:12.722Z,1004.44
2022-09-10T07:47:12.682Z,1004.44
2022-09-10T07:48:12.651Z,1004.51
2022-09-10T07:49:12.658Z,1004.47
2022-09-10T07:50:12.663Z,1004.46
2022-09-10T07:51:12.651Z,1004.44
2022-09-10T07:52:12.675Z,1004.46
2022-09-10T07:53:12.640Z,1004.50
2022-09-10T07:54:12.627Z,1004.53
2022-09-10T07:55:12.669Z,1004.57
2022-09-10T07:56:12.638Z,1004.54
2022-09-10T07:57:12.634Z,1004.53
2022-09-10T07:58:12.640Z,1004.56
2022-09-10T07:59:12.628Z,1004.61
2022-09-10T08:00:12.609Z,1004.57
2022-09-10T08:01:12.721Z,1004.61
2022-09-10T08:02:12.661Z,1004.61
2022-09-10T08:03:12.600Z,1004.60
2022-09-10T08:04:12.615Z,1004.63
2022-09-10T08:05:12.588Z,1004.62
2022-09-10T08:06:12.589Z,1004.65
2022-09-10T08:07:12.577Z,1004.66
2022-09-10T08:08:12.575Z,1004.61
2022-09-10T08:09:12.579Z,1004.64
2022-09-10T08:10:12.612Z,1004.65
2022-09-10T08:11:12.618Z,1004.66
2022-09-10T08:12:12.607Z,1004.64
2022-09-10T08:13:12.587Z,1004.64
2022-09-10T08:14:12.580Z,1004.68
2022-09-10T08:15:12.556Z,1004.65
2022-09-10T08:16:12.634Z,1004.60
2022-09-10T08:17:12.564Z,1004.63
2022-09-10T08:18:12.552Z,1004.64
2022-09-10T08:19:12.550Z,1004.62
2022-09-10T08:20:12.535Z,1004.63
2022-09-10T08:21:12.537Z,1004.66
2022-09-10T08:22:13.657Z,1004.69
2022-09-10T08:23:12.554Z,1004.65
2022-09-10T08:24:12.528Z,1004.68
2022-09-10T08:25:12.527Z,1004.64
2022-09-10T08:26:12.518Z,1004.69
2022-09-10T08:27:12.513Z,1004.67
2022-09-10T08:28:12.546Z,1004.68
2022-09-10T08:29:12.517Z,1004.77
2022-09-10T08:30:12.527Z,1004.78
2022-09-10T08:31:12.570Z,1004.76
2022-09-10T08:32:12.527Z,1004.74
2022-09-10T08:33:12.541Z,1004.76
2022-09-10T08:34:12.503Z,1004.69
2022-09-10T08:35:12.494Z,1004.69
2022-09-10T08:36:12.531Z,1004.71
2022-09-10T08:37:12.503Z,1004.69
2022-09-10T08:38:12.491Z,1004.69
2022-09-10T08:39:12.489Z,1004.66
2022-09-10T08:40:12.578Z,1004.73
2022-09-10T08:41:12.489Z,1004.70
2022-09-10T08:42:12.490Z,1004.67
2022-09-10T08:43:12.518Z,1004.71
2022-09-10T08:44:12.501Z,1004.77
2022-09-10T08:45:12.509Z,1004.73
2022-09-10T08:46:12.520Z,1004.68
2022-09-10T08:47:12.604Z,1004.69
2022-09-10T08:48:12.486Z,1004.71
2022-09-10T08:49:12.484Z,1004.59
2022-09-10T08:50:12.480Z,1004.62
2022-09-10T08:51:12.490Z,1004.67
2022-09-10T08:52:12.487Z,1004.65
2022-09-10T08:53:12.519Z,1004.66
2022-09-10T08:54:12.510Z,1004.65
2022-09-10T08:55:12.504Z,1004.60
2022-09-10T08:56:12.476Z,1004.61
2022-09-10T08:57:12.476Z,1004.61
2022-09-10T08:58:12.491Z,1004.63
2022-09-10T08:59:12.494Z,1004.72
2022-09-10T09:00:12.497Z,1004.65
2022-09-10T09:01:12.559Z,1004.65
2022-09-10T09:02:22.443Z,1004.62
2022-09-10T09:03:12.509Z,1004.64
2022-09-10T09:04:12.491Z,1004.68
2022-09-10T09:05:12.471Z,1004.69
2022-09-10T09:06:12.473Z,1004.69
2022-09-10T09:07:12.472Z,1004.68
2022-09-10T09:08:12.493Z,1004.71
2022-09-10T09:09:15.645Z,1004.71
2022-09-10T09:10:12.490Z,1004.76
2022-09-10T09:11:12.472Z,1004.72
2022-09-10T09:12:12.456Z,1004.75
2022-09-10T09:13:12.456Z,1004.73
2022-09-10T09:14:12.460Z,1004.78
2022-09-10T09:15:12.483Z,1004.73
2022-09-10T09:16:12.479Z,1004.77
2022-09-10T09:17:12.477Z,1004.75
2022-09-10T09:18:12.455Z,1004.73
2022-09-10T09:19:12.469Z,1004.74
2022-09-10T09:20:12.444Z,1004.82
2022-09-10T09:21:12.436Z,1004.73
2022-09-10T09:22:12.458Z,1004.77
2022-09-10T09:23:12.475Z,1004.77
2022-09-10T09:24:13.844Z,1004.76
2022-09-10T09:25:12.440Z,1004.78
2022-09-10T09:26:12.457Z,1004.80
2022-09-10T09:27:12.477Z,1004.83
2022-09-10T09:28:12.424Z,1004.83
2022-09-10T09:29:12.439Z,1004.90
2022-09-10T09:30:12.427Z,1004.93
2022-09-10T09:31:12.489Z,1004.95
2022-09-10T09:32:12.421Z,1004.99
2022-09-10T09:33:12.451Z,1005.02
2022-09-10T09:34:12.421Z,1004.99
2022-09-10T09:35:12.455Z,1005.00
2022-09-10T09:36:12.430Z,1004.98
2022-09-10T09:37:12.413Z,1005.02
2022-09-10T09:38:12.443Z,1005.00
2022-09-10T09:39:12.401Z,1004.98
2022-09-10T09:40:12.448Z,1004.96
2022-09-10T09:41:12.406Z,1004.94
2022-09-10T09:42:12.422Z,1004.99
2022-09-10T09:43:12.423Z,1004.98
2022-09-10T09:44:12.395Z,1004.96
2022-09-10T09:45:12.401Z,1004.97
2022-09-10T09:46:12.450Z,1005.00
2022-09-10T09:47:12.403Z,1004.98
2022-09-10T09:48:12.383Z,1004.98
2022-09-10T09:49:12.389Z,1004.98
2022-09-10T09:50:12.398Z,1005.01
2022-09-10T09:51:12.399Z,1004.98
2022-09-10T09:52:12.396Z,1004.98
2022-09-10T09:53:12.378Z,1004.97
2022-09-10T09:54:46.699Z,1004.94
2022-09-10T09:55:15.152Z,1004.92
2022-09-10T09:56:12.367Z,1004.91
2022-09-10T09:57:12.368Z,1004.93
2022-09-10T09:58:12.356Z,1004.95
2022-09-10T09:59:15.022Z,1004.91
2022-09-10T10:00:12.357Z,1004.93
2022-09-10T10:01:12.439Z,1004.94
2022-09-10T10:02:12.410Z,1004.92
2022-09-10T10:03:12.363Z,1004.96
2022-09-10T10:04:12.351Z,1004.94
2022-09-10T10:05:12.354Z,1004.94
2022-09-10T10:06:12.332Z,1004.89
2022-09-10T10:07:12.354Z,1004.90
2022-09-10T10:08:12.357Z,1004.88
2022-09-10T10:09:12.331Z,1004.89
2022-09-10T10:10:12.330Z,1004.88
2022-09-10T10:11:12.326Z,1004.90
2022-09-10T10:12:12.319Z,1004.89
2022-09-10T10:13:12.347Z,1004.89
2022-09-10T10:14:12.323Z,1004.89
2022-09-10T10:15:12.320Z,1004.91
2022-09-10T10:16:12.324Z,1004.90
2022-09-10T10:17:12.312Z,1004.88
2022-09-10T10:18:12.309Z,1004.84
2022-09-10T10:19:12.317Z,1004.84
2022-09-10T10:20:12.304Z,1004.85
2022-09-10T10:21:12.329Z,1004.85
2022-09-10T10:22:12.333Z,1004.79
2022-09-10T10:23:12.295Z,1004.80
2022-09-10T10:24:12.292Z,1004.80
2022-09-10T10:25:12.295Z,1004.83
2022-09-10T10:26:12.282Z,1004.80
2022-09-10T10:27:12.310Z,1004.78
2022-09-10T10:28:12.316Z,1004.78
2022-09-10T10:29:12.285Z,1004.77
2022-09-10T10:30:12.280Z,1004.77
2022-09-10T10:31:12.344Z,1004.81
2022-09-10T10:32:12.280Z,1004.81
2022-09-10T10:33:12.264Z,1004.80
2022-09-10T10:34:12.301Z,1004.79
2022-09-10T10:35:12.260Z,1004.73
2022-09-10T10:36:12.263Z,1004.81
2022-09-10T10:37:12.289Z,1004.78
2022-09-10T10:38:12.292Z,1004.77
2022-09-10T10:39:12.260Z,1004.74
2022-09-10T10:40:12.326Z,1004.77
2022-09-10T10:41:12.258Z,1004.77
2022-09-10T10:42:12.269Z,1004.75
2022-09-10T10:43:12.255Z,1004.79
2022-09-10T10:44:12.246Z,1004.77
2022-09-10T10:45:12.241Z,1004.76
2022-09-10T10:46:12.294Z,1004.79
2022-09-10T10:47:12.231Z,1004.78
2022-09-10T10:48:12.237Z,1004.79
2022-09-10T10:49:12.267Z,1004.82
2022-09-10T10:50:12.229Z,1004.77
2022-09-10T10:51:12.260Z,1004.81
2022-09-10T10:52:12.257Z,1004.78
2022-09-10T10:53:12.227Z,1004.81
2022-09-10T10:54:12.248Z,1004.81
2022-09-10T10:55:12.222Z,1004.83
2022-09-10T10:56:12.219Z,1004.80
2022-09-10T10:57:12.223Z,1004.81
2022-09-10T10:58:12.220Z,1004.82
2022-09-10T10:59:12.270Z,1004.85
2022-09-10T11:00:12.254Z,1004.84
2022-09-10T11:01:12.262Z,1004.83
2022-09-10T11:02:12.370Z,1004.82
2022-09-10T11:03:12.207Z,1004.81
2022-09-10T11:04:12.201Z,1004.81
2022-09-10T11:05:12.193Z,1004.81
2022-09-10T11:06:12.192Z,1004.83
2022-09-10T11:07:12.201Z,1004.81
2022-09-10T11:08:12.212Z,1004.79
2022-09-10T11:09:12.186Z,1004.79
2022-09-10T11:10:12.179Z,1004.78
2022-09-10T11:11:12.175Z,1004.77
2022-09-10T11:12:12.179Z,1004.79
2022-09-10T11:13:12.177Z,1004.76
2022-09-10T11:14:12.171Z,1004.77
2022-09-10T11:15:12.173Z,1004.78
2022-09-10T11:16:12.240Z,1004.79
2022-09-10T11:17:12.169Z,1004.77
2022-09-10T11:18:12.164Z,1004.78
2022-09-10T11:19:12.165Z,1004.85
2022-09-10T11:20:27.736Z,1004.84
2022-09-10T11:21:12.194Z,1004.83
2022-09-10T11:22:12.161Z,1004.89
2022-09-10T11:23:12.171Z,1004.83
2022-09-10T11:24:16.841Z,1004.81
2022-09-10T11:25:12.149Z,1004.76
2022-09-10T11:26:12.153Z,1004.79
2022-09-10T11:27:12.154Z,1004.74
2022-09-10T11:28:12.139Z,1004.74
2022-09-10T11:29:12.134Z,1004.74
2022-09-10T11:30:12.143Z,1004.72
2022-09-10T11:31:12.217Z,1004.69
2022-09-10T11:32:12.136Z,1004.69
2022-09-10T11:33:12.126Z,1004.68
2022-09-10T11:34:12.169Z,1004.67
2022-09-10T11:35:12.120Z,1004.77
2022-09-10T11:36:12.115Z,1004.70
2022-09-10T11:37:12.125Z,1004.70
2022-09-10T11:38:12.122Z,1004.63
2022-09-10T11:39:12.114Z,1004.62
2022-09-10T11:40:12.128Z,1004.64
2022-09-10T11:41:12.119Z,1004.65
2022-09-10T11:42:12.135Z,1004.66
2022-09-10T11:43:12.121Z,1004.65
2022-09-10T11:44:12.119Z,1004.62
2022-09-10T11:45:12.114Z,1004.65
2022-09-10T11:46:12.179Z,1004.67
2022-09-10T11:47:12.095Z,1004.69
2022-09-10T11:48:12.111Z,1004.68
2022-09-10T11:49:12.103Z,1004.68
2022-09-10T11:50:12.102Z,1004.66
2022-09-10T11:51:12.107Z,1004.70
2022-09-10T11:52:12.111Z,1004.66
2022-09-10T11:53:12.080Z,1004.66
2022-09-10T11:54:12.110Z,1004.68
2022-09-10T11:55:12.078Z,1004.68
2022-09-10T11:56:12.081Z,1004.68
2022-09-10T11:57:12.076Z,1004.69
2022-09-10T11:58:12.074Z,1004.71
2022-09-10T11:59:12.087Z,1004.72
2022-09-10T12:00:12.088Z,1004.67
2022-09-10T12:01:12.058Z,1004.68
2022-09-10T12:02:12.137Z,1004.72
2022-09-10T12:03:12.092Z,1004.75
2022-09-10T12:04:12.060Z,1004.73
2022-09-10T12:05:12.050Z,1004.74